Time;durP1;ratioP1;P1;durP2;ratioP2;P2;SDS_P1;SDS_P2;PMS_P1;PMS_P2;Temp;Humidity;BMP_temperature;BMP_pressure;BME280_temperature;BME280_humidity;BME280_pressure;Samples;Min_cycle;Max_cycle;Signal;HPM_P1;HPM_P2
2021/05/24 00:00:32;;;;;;;4.07;2.53;;;13.30;99.00;;;;;;5021955;28;20625;-69
2021/05/24 00:02:59;;;;;;;3.17;2.80;;;13.30;99.10;;;;;;5025057;28;20207;-68
2021/05/24 00:05:31;;;;;;;3.10;2.80;;;13.30;99.30;;;;;;5026009;28;20216;-69
2021/05/24 00:07:57;;;;;;;2.60;2.40;;;13.20;99.40;;;;;;5024725;28;20450;-69
2021/05/24 00:10:27;;;;;;;2.90;2.70;;;13.30;99.40;;;;;;5023287;28;20436;-68
2021/05/24 00:12:57;;;;;;;5.93;2.67;;;13.20;99.40;;;;;;5021014;28;20438;-69
2021/05/24 00:15:29;;;;;;;3.63;2.50;;;13.20;99.20;;;;;;5023548;28;20879;-69
2021/05/24 00:17:55;;;;;;;3.13;2.80;;;13.20;98.70;;;;;;5021726;28;21042;-68
2021/05/24 00:20:30;;;;;;;2.97;2.33;;;13.20;98.60;;;;;;5023535;28;20427;-69
2021/05/24 00:22:56;;;;;;;2.60;2.40;;;13.20;98.30;;;;;;5021481;28;20434;-69
2021/05/24 00:25:22;;;;;;;3.33;2.70;;;13.10;98.00;;;;;;5019244;28;20533;-70
2021/05/24 00:27:48;;;;;;;6.20;2.80;;;13.10;97.80;;;;;;5021368;28;20439;-68
2021/05/24 00:30:14;;;;;;;3.83;2.50;;;13.10;97.90;;;;;;5023899;28;20439;-70
2021/05/24 00:32:40;;;;;;;5.20;2.50;;;13.10;97.90;;;;;;5021647;28;20189;-69
2021/05/24 00:35:07;;;;;;;2.50;2.30;;;13.10;98.00;;;;;;5022604;28;21249;-69
2021/05/24 00:37:33;;;;;;;2.80;2.60;;;13.10;98.00;;;;;;5024165;28;20467;-70
2021/05/24 00:39:59;;;;;;;2.80;2.60;;;13.00;97.90;;;;;;5023218;28;20503;-69
2021/05/24 00:42:25;;;;;;;2.60;2.40;;;13.10;98.10;;;;;;5023537;28;20195;-69
2021/05/24 00:44:50;;;;;;;2.50;2.30;;;13.00;98.10;;;;;;5023556;28;20469;-68
2021/05/24 00:47:16;;;;;;;4.70;2.43;;;13.00;98.20;;;;;;5024120;28;20272;-69
2021/05/24 00:49:44;;;;;;;3.13;2.40;;;13.10;98.30;;;;;;5023842;28;20567;-69
2021/05/24 00:52:11;;;;;;;2.50;2.30;;;13.00;98.60;;;;;;5022177;28;20220;-70
2021/05/24 00:54:37;;;;;;;3.07;2.23;;;13.00;98.20;;;;;;5023801;28;21184;-69
2021/05/24 00:57:04;;;;;;;2.70;2.50;;;13.00;98.10;;;;;;5024533;28;20470;-69
2021/05/24 00:59:29;;;;;;;2.63;2.30;;;13.00;98.20;;;;;;5023356;28;20223;-68
2021/05/24 01:01:55;;;;;;;2.97;2.73;;;13.00;98.20;;;;;;5022912;28;20446;-67
2021/05/24 01:04:21;;;;;;;2.97;2.47;;;13.10;98.20;;;;;;5022023;28;20204;-68
2021/05/24 01:06:48;;;;;;;3.63;2.40;;;13.10;98.00;;;;;;5023410;28;20629;-68
2021/05/24 01:09:16;;;;;;;3.30;2.53;;;13.10;98.00;;;;;;5021815;28;20447;-68
2021/05/24 01:11:42;;;;;;;2.90;2.60;;;13.00;98.10;;;;;;5024100;28;20458;-69
2021/05/24 01:14:08;;;;;;;3.20;2.60;;;13.00;98.10;;;;;;5023613;28;21062;-70
2021/05/24 01:16:34;;;;;;;3.10;2.80;;;13.00;98.00;;;;;;5023389;28;20504;-69
2021/05/24 01:18:59;;;;;;;2.90;2.70;;;13.00;97.80;;;;;;5021715;28;20185;-68
2021/05/24 01:21:25;;;;;;;2.53;2.30;;;13.00;97.70;;;;;;5022156;28;20189;-70
2021/05/24 01:23:52;;;;;;;3.00;2.70;;;13.00;97.70;;;;;;5020797;28;20200;-69
2021/05/24 01:26:19;;;;;;;4.43;2.70;;;13.00;97.70;;;;;;5021118;28;20739;-69
2021/05/24 01:28:48;;;;;;;4.47;2.40;;;13.00;97.70;;;;;;5028541;28;20439;-68
2021/05/24 01:31:14;;;;;;;2.53;2.33;;;13.00;97.60;;;;;;5027412;28;20477;-70
2021/05/24 01:33:40;;;;;;;2.90;2.70;;;13.00;97.70;;;;;;5027598;28;20519;-69
2021/05/24 01:36:08;;;;;;;2.60;2.40;;;13.10;97.80;;;;;;5025743;28;20471;-68
2021/05/24 01:38:37;;;;;;;2.80;2.60;;;13.00;97.80;;;;;;5025590;28;20584;-68
2021/05/24 01:41:04;;;;;;;4.03;2.80;;;13.10;97.80;;;;;;5026819;28;20435;-67
2021/05/24 01:43:29;;;;;;;4.50;2.90;;;13.10;97.80;;;;;;5024949;28;20431;-68
2021/05/24 01:45:56;;;;;;;2.80;2.53;;;13.00;97.70;;;;;;5028222;28;20514;-69
2021/05/24 01:48:22;;;;;;;3.80;2.30;;;13.00;97.70;;;;;;5026375;28;20212;-69
2021/05/24 01:50:48;;;;;;;2.47;2.27;;;13.00;97.70;;;;;;5027958;28;20423;-68
2021/05/24 01:53:14;;;;;;;2.70;2.50;;;13.00;97.60;;;;;;5027689;28;20481;-69
2021/05/24 01:55:40;;;;;;;4.23;2.33;;;13.00;97.40;;;;;;5025786;28;20502;-69
2021/05/24 01:58:06;;;;;;;3.10;2.53;;;13.00;97.40;;;;;;5026866;28;20193;-68
2021/05/24 02:00:33;;;;;;;2.63;2.40;;;13.00;97.40;;;;;;5027450;28;20195;-69
2021/05/24 02:02:59;;;;;;;3.47;2.40;;;13.00;97.40;;;;;;5022775;28;20587;-68
2021/05/24 02:05:26;;;;;;;7.57;2.30;;;13.00;97.50;;;;;;5027594;28;20630;-69
2021/05/24 02:07:53;;;;;;;3.67;2.40;;;13.00;97.50;;;;;;5027659;28;20199;-68
2021/05/24 02:10:22;;;;;;;2.83;2.60;;;13.00;97.50;;;;;;5026414;28;20983;-70
2021/05/24 02:12:48;;;;;;;2.70;2.50;;;13.00;97.60;;;;;;5027764;28;20461;-69
2021/05/24 02:15:18;;;;;;;3.70;2.60;;;13.00;97.80;;;;;;5023262;28;20563;-69
2021/05/24 02:17:44;;;;;;;3.20;2.67;;;12.90;98.10;;;;;;5028008;28;21188;-68
2021/05/24 02:20:11;;;;;;;2.80;2.60;;;12.90;98.10;;;;;;5025046;28;20439;-69
2021/05/24 02:22:37;;;;;;;3.40;2.80;;;12.90;98.20;;;;;;5027855;28;20481;-69
2021/05/24 02:25:05;;;;;;;3.90;2.70;;;12.90;98.40;;;;;;5026672;28;20546;-69
2021/05/24 02:27:31;;;;;;;2.90;2.50;;;12.90;98.70;;;;;;5025095;28;20446;-69
2021/05/24 02:29:56;;;;;;;9.13;2.60;;;12.80;98.70;;;;;;5026673;28;20491;-69
2021/05/24 02:32:22;;;;;;;2.67;2.47;;;12.80;98.80;;;;;;5024640;28;20274;-69
2021/05/24 02:34:47;;;;;;;2.87;2.60;;;12.80;99.00;;;;;;5026964;28;20212;-68
2021/05/24 02:37:13;;;;;;;2.83;2.63;;;12.80;99.10;;;;;;5027976;28;20193;-68
2021/05/24 02:39:39;;;;;;;4.20;2.63;;;12.80;99.30;;;;;;5025874;28;20745;-68
2021/05/24 02:42:05;;;;;;;3.20;2.30;;;12.80;99.50;;;;;;5026841;28;20188;-69
2021/05/24 02:44:31;;;;;;;5.73;2.50;;;12.70;99.90;;;;;;5023877;28;20474;-67
2021/05/24 02:46:56;;;;;;;3.40;2.50;;;12.70;99.90;;;;;;5021798;28;20188;-69
2021/05/24 02:49:22;;;;;;;2.97;2.50;;;12.70;99.90;;;;;;5025329;28;20192;-69
2021/05/24 02:51:47;;;;;;;2.90;2.40;;;12.70;99.90;;;;;;5025927;28;20693;-68
2021/05/24 02:54:13;;;;;;;6.20;2.60;;;12.70;99.90;;;;;;5022546;28;20221;-68
2021/05/24 02:56:39;;;;;;;3.47;2.70;;;12.70;99.90;;;;;;5027591;28;20787;-69
2021/05/24 02:59:05;;;;;;;5.40;2.57;;;12.70;99.90;;;;;;5028298;28;20263;-69
2021/05/24 03:01:32;;;;;;;2.97;2.77;;;12.60;99.90;;;;;;5025501;28;20184;-69
2021/05/24 03:03:59;;;;;;;2.60;2.40;;;12.60;99.90;;;;;;5023124;28;20485;-69
2021/05/24 03:06:25;;;;;;;4.43;2.67;;;12.60;99.90;;;;;;5027125;28;20856;-69
2021/05/24 03:08:50;;;;;;;2.90;2.70;;;12.50;99.90;;;;;;5027049;28;20436;-68
2021/05/24 03:11:17;;;;;;;2.97;2.67;;;12.50;99.90;;;;;;5024313;28;20666;-69
2021/05/24 03:13:43;;;;;;;3.20;2.30;;;12.60;99.90;;;;;;5024757;28;20212;-70
2021/05/24 03:16:09;;;;;;;3.60;2.50;;;12.50;99.90;;;;;;5017314;28;20436;-68
2021/05/24 03:18:35;;;;;;;2.70;2.50;;;12.50;99.90;;;;;;5027409;28;20419;-68
2021/05/24 03:21:01;;;;;;;2.77;2.57;;;12.50;99.90;;;;;;5026509;28;20529;-69
2021/05/24 03:23:27;;;;;;;5.87;2.90;;;12.50;99.90;;;;;;5025468;28;20184;-69
2021/05/24 03:25:53;;;;;;;3.10;2.43;;;12.50;99.90;;;;;;5025225;28;20450;-68
2021/05/24 03:28:19;;;;;;;2.90;2.60;;;12.50;99.90;;;;;;5024624;28;20591;-68
2021/05/24 03:30:44;;;;;;;2.90;2.70;;;12.50;99.90;;;;;;5023795;28;20481;-68
2021/05/24 03:33:10;;;;;;;2.70;2.50;;;12.50;99.90;;;;;;5025892;28;20254;-69
2021/05/24 03:35:36;;;;;;;2.63;2.43;;;12.50;99.90;;;;;;5022859;28;20212;-69
2021/05/24 03:38:02;;;;;;;2.70;2.50;;;12.40;99.90;;;;;;5023225;28;20629;-68
2021/05/24 03:40:28;;;;;;;3.30;2.50;;;12.40;99.90;;;;;;5023614;28;20478;-68
2021/05/24 03:42:54;;;;;;;7.00;2.67;;;12.30;99.90;;;;;;5023723;28;20662;-68
2021/05/24 03:45:23;;;;;;;3.10;2.80;;;12.30;99.90;;;;;;5025419;28;20459;-68
2021/05/24 03:47:49;;;;;;;3.00;2.63;;;12.30;99.90;;;;;;5025469;28;20231;-69
2021/05/24 03:50:16;;;;;;;2.50;2.30;;;12.30;99.90;;;;;;5023374;28;20538;-68
2021/05/24 03:52:41;;;;;;;4.00;3.03;;;12.30;99.90;;;;;;5026533;28;20481;-68
2021/05/24 03:55:08;;;;;;;2.87;2.67;;;12.30;99.90;;;;;;5023885;28;20823;-68
2021/05/24 03:57:34;;;;;;;3.17;2.97;;;12.30;99.90;;;;;;5024317;28;20196;-68
2021/05/24 04:00:00;;;;;;;3.30;3.00;;;12.20;99.90;;;;;;5021793;28;20442;-69
2021/05/24 04:02:26;;;;;;;3.03;2.83;;;12.20;99.90;;;;;;5025462;28;20431;-69
2021/05/24 04:04:51;;;;;;;3.30;3.00;;;12.20;99.90;;;;;;5026799;28;20215;-69
2021/05/24 04:07:23;;;;;;;3.00;2.80;;;12.20;99.90;;;;;;5024514;28;20187;-68
2021/05/24 04:09:50;;;;;;;4.10;2.83;;;12.20;99.90;;;;;;5026930;28;20212;-69
2021/05/24 04:12:16;;;;;;;2.73;2.53;;;12.20;99.90;;;;;;5022942;28;20470;-69
2021/05/24 04:14:42;;;;;;;3.30;2.70;;;12.20;99.90;;;;;;5027360;28;20479;-69
2021/05/24 04:17:10;;;;;;;3.00;2.70;;;12.20;99.90;;;;;;5024888;28;20438;-70
2021/05/24 04:19:36;;;;;;;3.43;2.97;;;12.20;99.90;;;;;;5023963;28;20431;-67
2021/05/24 04:22:01;;;;;;;2.83;2.63;;;12.10;99.90;;;;;;5021733;28;20435;-70
2021/05/24 04:24:27;;;;;;;3.07;2.80;;;12.10;99.90;;;;;;5024553;28;20203;-69
2021/05/24 04:26:53;;;;;;;3.20;2.70;;;12.10;99.90;;;;;;5018674;28;20195;-68
2021/05/24 04:29:18;;;;;;;2.80;2.60;;;12.10;99.90;;;;;;5025006;28;20212;-71
2021/05/24 04:31:44;;;;;;;2.70;2.47;;;12.10;99.90;;;;;;5021034;28;20200;-69
2021/05/24 04:34:09;;;;;;;2.60;2.40;;;12.10;99.90;;;;;;5023398;28;20269;-69
2021/05/24 04:36:35;;;;;;;3.73;2.80;;;12.10;99.90;;;;;;5021629;28;20898;-69
2021/05/24 04:39:01;;;;;;;2.63;2.43;;;12.10;99.90;;;;;;5022920;28;20709;-68
2021/05/24 04:41:26;;;;;;;3.10;2.60;;;12.10;99.90;;;;;;5021201;28;20644;-69
2021/05/24 04:43:56;;;;;;;3.00;2.70;;;12.20;99.90;;;;;;5021739;28;20820;-67
2021/05/24 04:46:22;;;;;;;2.83;2.50;;;12.20;99.90;;;;;;5018941;28;20211;-69
2021/05/24 04:48:47;;;;;;;3.60;2.97;;;12.20;99.90;;;;;;5018639;28;20439;-69
2021/05/24 04:51:13;;;;;;;2.57;2.37;;;12.20;99.90;;;;;;5019203;28;20227;-68
2021/05/24 04:53:39;;;;;;;3.47;3.10;;;12.30;99.90;;;;;;5018093;28;20254;-68
2021/05/24 04:56:04;;;;;;;4.10;2.93;;;12.30;99.90;;;;;;5020918;28;20216;-67
2021/05/24 04:58:30;;;;;;;3.60;3.30;;;12.30;99.90;;;;;;5019492;28;20283;-69
2021/05/24 05:00:57;;;;;;;3.73;3.10;;;12.40;99.90;;;;;;5020397;28;20570;-69
2021/05/24 05:03:23;;;;;;;3.00;2.60;;;12.40;99.90;;;;;;5023608;28;20192;-69
2021/05/24 05:05:48;;;;;;;3.30;3.00;;;12.40;99.90;;;;;;5021332;28;20600;-69
2021/05/24 05:08:14;;;;;;;2.70;2.50;;;12.40;99.90;;;;;;5024200;28;20207;-68
2021/05/24 05:10:40;;;;;;;3.37;3.07;;;12.40;99.90;;;;;;5021837;28;20532;-68
2021/05/24 05:13:05;;;;;;;3.20;3.00;;;12.40;99.90;;;;;;5022537;28;20200;-69
2021/05/24 05:15:32;;;;;;;3.40;3.03;;;12.50;99.90;;;;;;5024453;28;20258;-69
2021/05/24 05:17:57;;;;;;;3.30;3.00;;;12.50;99.90;;;;;;5022204;28;20203;-69
2021/05/24 05:20:23;;;;;;;3.20;2.93;;;12.50;99.90;;;;;;5024449;28;20439;-68
2021/05/24 05:22:49;;;;;;;2.90;2.70;;;12.50;99.90;;;;;;5024615;28;20720;-68
2021/05/24 05:25:15;;;;;;;3.03;2.83;;;12.60;99.90;;;;;;5021867;28;20224;-68
2021/05/24 05:27:41;;;;;;;3.80;2.90;;;12.60;99.90;;;;;;5021542;28;20198;-69
2021/05/24 05:30:08;;;;;;;4.00;2.73;;;12.70;99.90;;;;;;5020286;28;20458;-67
2021/05/24 05:32:33;;;;;;;2.73;2.53;;;12.60;99.90;;;;;;5023688;28;20626;-68
2021/05/24 05:34:59;;;;;;;2.90;2.70;;;12.70;99.90;;;;;;5022950;28;20471;-67
2021/05/24 05:37:24;;;;;;;3.97;2.80;;;12.70;99.90;;;;;;5024366;28;20275;-69
2021/05/24 05:39:54;;;;;;;3.40;2.60;;;12.80;99.90;;;;;;5024100;28;20196;-69
2021/05/24 05:42:20;;;;;;;2.80;2.60;;;12.80;99.90;;;;;;5020283;28;20201;-69
2021/05/24 05:44:47;;;;;;;4.47;2.90;;;12.80;99.90;;;;;;5024897;28;20558;-68
2021/05/24 05:47:12;;;;;;;3.77;3.47;;;12.90;99.90;;;;;;5022542;28;20497;-69
2021/05/24 05:49:38;;;;;;;3.70;3.10;;;12.90;99.90;;;;;;5021306;28;20857;-68
2021/05/24 05:52:05;;;;;;;3.10;2.90;;;12.90;99.90;;;;;;5022606;28;20193;-67
2021/05/24 05:54:31;;;;;;;4.07;3.10;;;13.00;99.90;;;;;;5021749;28;20208;-68
2021/05/24 05:56:57;;;;;;;3.47;3.17;;;13.00;99.90;;;;;;5020910;28;20902;-69
2021/05/24 05:59:23;;;;;;;3.23;3.03;;;13.00;99.90;;;;;;5022000;28;21168;-68
2021/05/24 06:01:48;;;;;;;2.90;2.70;;;13.00;99.90;;;;;;5022871;28;20517;-68
2021/05/24 06:04:14;;;;;;;3.00;2.80;;;13.00;99.90;;;;;;5023350;28;20212;-68
2021/05/24 06:06:40;;;;;;;34.83;22.60;;;13.00;99.90;;;;;;5022874;28;20192;-69
2021/05/24 06:09:06;;;;;;;4.10;3.70;;;13.10;99.90;;;;;;5021593;28;20271;-68
2021/05/24 06:11:31;;;;;;;5.60;3.30;;;13.20;99.90;;;;;;5019669;28;20247;-68
2021/05/24 06:13:57;;;;;;;3.20;2.87;;;13.20;99.90;;;;;;5020551;28;20295;-69
2021/05/24 06:16:22;;;;;;;3.60;3.30;;;13.20;99.90;;;;;;5021327;28;20765;-69
2021/05/24 06:18:48;;;;;;;4.27;3.20;;;13.20;99.90;;;;;;5020252;28;20215;-68
2021/05/24 06:21:14;;;;;;;3.90;3.50;;;13.20;99.90;;;;;;5019884;28;20196;-68
2021/05/24 06:23:45;;;;;;;5.37;3.30;;;13.30;99.90;;;;;;5019824;28;20192;-69
2021/05/24 06:26:10;;;;;;;6.50;3.80;;;13.30;99.90;;;;;;5023517;28;20454;-68
2021/05/24 06:28:37;;;;;;;3.27;3.07;;;13.40;99.90;;;;;;5021597;28;20990;-69
2021/05/24 06:31:02;;;;;;;3.50;3.20;;;13.40;99.90;;;;;;5021120;28;20181;-69
2021/05/24 06:33:28;;;;;;;3.40;2.90;;;13.40;99.90;;;;;;5021787;28;20447;-69
2021/05/24 06:35:54;;;;;;;3.17;2.97;;;13.50;99.90;;;;;;5019627;28;20230;-70
2021/05/24 06:38:19;;;;;;;3.67;3.30;;;13.50;99.90;;;;;;5022743;28;20588;-69
2021/05/24 06:40:45;;;;;;;3.63;3.37;;;13.50;99.90;;;;;;5021833;28;20185;-69
2021/05/24 06:43:10;;;;;;;3.20;3.00;;;13.30;99.90;;;;;;5019190;28;22351;-66
2021/05/24 06:45:36;;;;;;;3.57;3.20;;;13.40;99.90;;;;;;5021083;28;20220;-67
2021/05/24 06:48:02;;;;;;;3.60;3.30;;;13.40;99.90;;;;;;5020046;28;20208;-68
2021/05/24 06:50:28;;;;;;;4.07;3.37;;;13.40;99.90;;;;;;5020544;28;20271;-68
2021/05/24 06:52:53;;;;;;;4.07;3.77;;;13.40;99.90;;;;;;5020570;28;20590;-68
2021/05/24 06:55:19;;;;;;;5.60;3.23;;;13.40;99.90;;;;;;5020963;28;20235;-69
2021/05/24 06:57:44;;;;;;;3.70;3.40;;;13.50;99.90;;;;;;5023755;28;20192;-69
2021/05/24 07:00:11;;;;;;;3.33;3.03;;;13.60;99.90;;;;;;5021369;28;20180;-69
2021/05/24 07:02:42;;;;;;;3.80;3.07;;;13.60;99.90;;;;;;5021696;28;20254;-70
2021/05/24 07:05:09;;;;;;;3.43;3.13;;;13.70;99.90;;;;;;5023452;28;20470;-69
2021/05/24 07:07:35;;;;;;;3.40;3.10;;;13.80;99.90;;;;;;5021056;28;20443;-68
2021/05/24 07:10:01;;;;;;;3.73;3.43;;;13.80;99.90;;;;;;5020999;28;20459;-69
2021/05/24 07:12:28;;;;;;;3.20;2.90;;;13.80;99.90;;;;;;5022441;28;20440;-68
2021/05/24 07:14:53;;;;;;;6.07;3.57;;;13.90;99.90;;;;;;5022053;28;20477;-69
2021/05/24 07:17:20;;;;;;;3.23;3.03;;;14.00;99.90;;;;;;5022062;28;20432;-69
2021/05/24 07:19:45;;;;;;;4.50;3.13;;;14.20;99.90;;;;;;5023721;28;20471;-68
2021/05/24 07:22:16;;;;;;;3.00;2.80;;;14.40;99.90;;;;;;5020413;28;21261;-70
2021/05/24 07:24:41;;;;;;;41.43;32.83;;;14.60;99.90;;;;;;5021254;28;20220;-70
2021/05/24 07:27:07;;;;;;;49.33;29.97;;;14.70;99.90;;;;;;5021496;28;21152;-73
2021/05/24 07:29:33;;;;;;;5.37;4.90;;;14.70;99.90;;;;;;5024115;28;20610;-69
2021/05/24 07:31:59;;;;;;;4.90;3.97;;;14.70;99.90;;;;;;5024969;28;20208;-69
2021/05/24 07:34:24;;;;;;;3.97;3.10;;;14.90;99.90;;;;;;5024691;28;20208;-69
2021/05/24 07:36:50;;;;;;;3.27;3.07;;;15.00;99.90;;;;;;5024740;28;20242;-68
2021/05/24 07:39:16;;;;;;;3.67;3.00;;;15.00;99.90;;;;;;5023857;28;20184;-68
2021/05/24 07:41:42;;;;;;;3.53;2.77;;;14.90;99.90;;;;;;5020761;28;20207;-69
2021/05/24 07:44:07;;;;;;;2.93;2.70;;;15.00;99.90;;;;;;5019616;28;20192;-66
2021/05/24 07:46:33;;;;;;;2.90;2.70;;;15.10;99.90;;;;;;5028436;28;20211;-71
2021/05/24 07:48:59;;;;;;;3.37;3.00;;;15.20;99.90;;;;;;5027099;28;20242;-71
2021/05/24 07:51:25;;;;;;;3.20;2.90;;;15.20;99.90;;;;;;5022822;28;20913;-71
2021/05/24 07:53:53;;;;;;;3.80;3.47;;;15.30;99.90;;;;;;5026569;28;21526;-72
2021/05/24 07:56:18;;;;;;;2.93;2.67;;;15.40;99.90;;;;;;5024940;28;20466;-71
2021/05/24 07:58:44;;;;;;;4.63;3.43;;;15.40;99.90;;;;;;5022103;28;20443;-70
2021/05/24 08:01:10;;;;;;;7.60;4.20;;;15.40;99.90;;;;;;5026141;28;20955;-70
2021/05/24 08:03:35;;;;;;;3.10;2.80;;;15.50;99.90;;;;;;5021501;28;20204;-69
2021/05/24 08:06:01;;;;;;;3.17;2.87;;;15.60;99.90;;;;;;5025799;28;20299;-70
2021/05/24 08:08:26;;;;;;;2.83;2.63;;;15.60;99.90;;;;;;5025255;28;20203;-66
2021/05/24 08:10:52;;;;;;;4.00;3.40;;;15.80;99.90;;;;;;5026222;28;20191;-72
2021/05/24 08:13:18;;;;;;;3.10;2.90;;;16.10;99.90;;;;;;5023648;28;20192;-69
2021/05/24 08:15:43;;;;;;;3.80;3.07;;;16.20;99.90;;;;;;5022969;28;20266;-70
2021/05/24 08:18:09;;;;;;;3.30;3.00;;;16.30;99.90;;;;;;5023198;28;20815;-69
2021/05/24 08:20:36;;;;;;;6.13;4.00;;;16.40;99.90;;;;;;5022079;28;20809;-70
2021/05/24 08:23:03;;;;;;;3.50;3.27;;;16.50;99.90;;;;;;5016187;28;20192;-70
2021/05/24 08:25:28;;;;;;;4.33;3.13;;;16.60;99.90;;;;;;5016663;28;20466;-73
2021/05/24 08:27:54;;;;;;;3.37;3.00;;;16.60;99.90;;;;;;5016042;28;20448;-70
2021/05/24 08:30:20;;;;;;;3.43;3.13;;;16.70;99.90;;;;;;5014897;28;20219;-71
2021/05/24 08:32:47;;;;;;;3.03;2.83;;;16.80;99.90;;;;;;5018349;28;20211;-70
2021/05/24 08:35:12;;;;;;;7.50;3.10;;;16.80;99.90;;;;;;5016994;28;20479;-69
2021/05/24 08:37:38;;;;;;;3.13;2.93;;;17.00;99.90;;;;;;5022611;28;20454;-69
2021/05/24 08:40:07;;;;;;;3.90;3.10;;;17.10;99.90;;;;;;5022224;28;20185;-69
2021/05/24 08:42:36;;;;;;;3.53;2.57;;;17.20;99.90;;;;;;5022462;28;20188;-71
2021/05/24 08:45:03;;;;;;;3.50;2.70;;;17.30;99.90;;;;;;5022811;28;20468;-71
2021/05/24 08:47:30;;;;;;;3.00;2.80;;;17.40;99.90;;;;;;5028056;28;20450;-70
2021/05/24 08:49:55;;;;;;;3.63;3.10;;;17.40;99.90;;;;;;5022298;28;21018;-69
2021/05/24 08:52:21;;;;;;;3.33;2.90;;;17.40;99.90;;;;;;5024681;28;20482;-70
2021/05/24 08:54:47;;;;;;;3.10;2.80;;;17.60;99.90;;;;;;5027154;28;20285;-70
2021/05/24 08:57:12;;;;;;;89.70;56.13;;;17.70;99.90;;;;;;5024255;28;20215;-68
2021/05/24 08:59:38;;;;;;;4.73;4.33;;;17.90;99.90;;;;;;5015518;28;20184;-68
2021/05/24 09:02:04;;;;;;;2.77;2.57;;;18.10;99.90;;;;;;5021035;28;20288;-69
2021/05/24 09:04:48;;;;;;;3.67;3.03;;;18.20;99.90;;;;;;5021709;28;20561;-68
2021/05/24 09:07:14;;;;;;;7.13;3.23;;;18.30;99.80;;;;;;5024308;28;20619;-69
2021/05/24 09:10:00;;;;;;;5.17;3.17;;;18.50;99.50;;;;;;5024966;28;20438;-68
2021/05/24 09:12:31;;;;;;;3.17;2.97;;;18.70;99.70;;;;;;5028283;28;20517;-68
2021/05/24 09:15:01;;;;;;;3.07;2.87;;;19.00;99.20;;;;;;5031491;28;20576;-68
2021/05/24 09:17:41;;;;;;;3.00;2.80;;;19.20;98.90;;;;;;5023058;28;20445;-68
2021/05/24 09:20:15;;;;;;;2.93;2.73;;;19.20;97.50;;;;;;5025363;28;20548;-68
2021/05/24 09:22:42;;;;;;;4.33;2.87;;;19.30;97.20;;;;;;5029576;28;20463;-68
2021/05/24 09:25:07;;;;;;;3.37;3.07;;;19.40;97.90;;;;;;5025992;28;20568;-67
2021/05/24 09:27:38;;;;;;;4.23;3.07;;;19.60;97.30;;;;;;5027992;28;20481;-68
2021/05/24 09:30:06;;;;;;;3.00;2.80;;;19.70;97.40;;;;;;5028786;28;20809;-68
2021/05/24 09:32:33;;;;;;;3.30;2.80;;;19.90;97.00;;;;;;5025545;28;20446;-68
2021/05/24 09:35:04;;;;;;;3.43;3.10;;;20.00;95.70;;;;;;5029569;28;21079;-68
2021/05/24 09:37:36;;;;;;;2.73;2.53;;;20.10;95.20;;;;;;5028668;28;20461;-67
2021/05/24 09:40:18;;;;;;;3.03;2.77;;;20.20;94.60;;;;;;5026895;28;20451;-68
2021/05/24 09:42:44;;;;;;;3.10;2.90;;;20.30;94.10;;;;;;5027893;28;21009;-68
2021/05/24 09:45:21;;;;;;;2.97;2.73;;;20.40;93.80;;;;;;5022795;28;20477;-68
2021/05/24 09:47:48;;;;;;;3.10;2.90;;;20.50;93.70;;;;;;5026411;28;20203;-68
2021/05/24 09:50:17;;;;;;;3.70;3.10;;;20.60;92.20;;;;;;5020830;28;20443;-67
2021/05/24 09:52:46;;;;;;;3.13;2.93;;;20.60;91.10;;;;;;5021461;28;20450;-68
2021/05/24 09:55:17;;;;;;;3.00;2.80;;;20.50;91.80;;;;;;5022696;28;20482;-67
2021/05/24 09:57:57;;;;;;;4.63;2.97;;;20.60;90.80;;;;;;5026158;28;20427;-68
2021/05/24 10:00:39;;;;;;;3.30;3.03;;;20.60;90.30;;;;;;5024357;28;20435;-68
2021/05/24 10:03:11;;;;;;;4.00;2.77;;;20.50;87.80;;;;;;5022709;28;20521;-67
2021/05/24 10:05:46;;;;;;;3.07;2.87;;;20.50;86.60;;;;;;5025287;28;20513;-68
2021/05/24 10:08:12;;;;;;;2.77;2.57;;;20.60;86.10;;;;;;5024441;28;20446;-69
2021/05/24 10:10:38;;;;;;;3.07;2.87;;;20.60;85.10;;;;;;5024708;28;20455;-67
2021/05/24 10:13:04;;;;;;;2.90;2.70;;;20.50;84.60;;;;;;5020422;28;20196;-67
2021/05/24 10:15:30;;;;;;;2.90;2.70;;;20.40;82.80;;;;;;5020749;28;20493;-68
2021/05/24 10:18:02;;;;;;;2.73;2.50;;;20.50;82.80;;;;;;5023341;28;21185;-68
2021/05/24 10:20:29;;;;;;;3.07;2.87;;;20.70;83.60;;;;;;5024899;28;20271;-68
2021/05/24 10:22:55;;;;;;;3.20;3.00;;;20.80;81.50;;;;;;5026134;28;20500;-68
2021/05/24 10:25:21;;;;;;;2.60;2.50;;;20.80;82.20;;;;;;5022125;28;20497;-67
2021/05/24 10:27:47;;;;;;;2.80;2.60;;;20.80;82.00;;;;;;5024313;28;20443;-67
2021/05/24 10:30:14;;;;;;;4.10;2.73;;;20.80;80.90;;;;;;5025818;28;20434;-68
2021/05/24 10:32:52;;;;;;;2.87;2.67;;;20.80;80.90;;;;;;5025838;28;20461;-68
2021/05/24 10:35:38;;;;;;;3.30;3.10;;;20.90;80.70;;;;;;5023627;28;20505;-69
2021/05/24 10:38:29;;;;;;;4.37;2.80;;;21.00;80.60;;;;;;5023057;28;20938;-68
2021/05/24 10:41:09;;;;;;;2.60;2.50;;;20.80;79.30;;;;;;5026557;28;20430;-69
2021/05/24 10:43:56;;;;;;;2.73;2.50;;;20.90;80.50;;;;;;5024903;28;20785;-68
2021/05/24 10:46:34;;;;;;;2.50;2.30;;;21.00;81.80;;;;;;5023290;28;20993;-68
2021/05/24 10:49:13;;;;;;;2.90;2.67;;;21.10;82.20;;;;;;5025140;28;20446;-68
2021/05/24 10:51:48;;;;;;;3.50;2.87;;;21.20;77.50;;;;;;5025099;28;20455;-68
2021/05/24 10:54:19;;;;;;;3.10;2.80;;;21.20;72.80;;;;;;5024787;28;20571;-68
2021/05/24 10:56:46;;;;;;;2.90;2.70;;;21.10;75.60;;;;;;5023875;28;20450;-68
2021/05/24 10:59:45;;;;;;;3.00;2.80;;;21.00;76.30;;;;;;5023941;28;20424;-67
2021/05/24 11:02:28;;;;;;;2.67;2.43;;;20.90;75.90;;;;;;5019499;28;20850;-68
2021/05/24 11:05:01;;;;;;;2.80;2.60;;;21.00;76.00;;;;;;5025370;28;20456;-68
2021/05/24 11:07:27;;;;;;;2.97;2.77;;;21.10;75.30;;;;;;5022415;28;20435;-68
2021/05/24 11:09:53;;;;;;;3.47;2.70;;;21.40;74.90;;;;;;5026098;28;20426;-68
2021/05/24 11:12:31;;;;;;;3.10;2.70;;;21.40;72.50;;;;;;5022279;28;20207;-67
2021/05/24 11:15:05;;;;;;;2.80;2.60;;;21.40;74.30;;;;;;5023023;28;21089;-68
2021/05/24 11:18:03;;;;;;;4.40;3.13;;;21.40;74.30;;;;;;5024515;28;20461;-68
2021/05/24 11:20:48;;;;;;;4.70;4.40;;;21.50;74.00;;;;;;5023184;28;20933;-69
2021/05/24 11:26:15;;;;;;;3.00;2.70;;;21.60;70.40;;;;;;5025286;28;20443;-67
2021/05/24 11:28:50;;;;;;;2.70;2.50;;;21.70;70.60;;;;;;5022727;28;20486;-67
2021/05/24 11:31:17;;;;;;;4.03;3.17;;;21.80;68.30;;;;;;5021853;28;20492;-68
2021/05/24 11:33:49;;;;;;;2.70;2.50;;;21.80;68.80;;;;;;5023102;28;20522;-68
2021/05/24 11:36:17;;;;;;;2.93;2.60;;;21.70;68.80;;;;;;5024730;28;20528;-67
2021/05/24 11:39:05;;;;;;;2.70;2.50;;;21.90;68.30;;;;;;5022381;28;20501;-68
2021/05/24 11:41:31;;;;;;;2.93;2.73;;;21.90;67.50;;;;;;5019740;28;20794;-67
2021/05/24 11:44:02;;;;;;;6.13;2.87;;;22.10;68.30;;;;;;5023027;28;20451;-69
2021/05/24 11:46:46;;;;;;;3.00;2.80;;;22.10;68.30;;;;;;5022292;28;20502;-68
2021/05/24 11:49:13;;;;;;;3.03;2.70;;;22.20;67.30;;;;;;5024621;28;20485;-68
2021/05/24 11:51:40;;;;;;;3.57;3.27;;;22.20;67.30;;;;;;5025942;28;20995;-68
2021/05/24 11:54:09;;;;;;;4.07;3.00;;;22.30;66.30;;;;;;5023999;28;21248;-68
2021/05/24 11:56:45;;;;;;;2.80;2.60;;;22.40;67.20;;;;;;5023235;28;20459;-68
2021/05/24 11:59:16;;;;;;;2.77;2.60;;;22.50;66.40;;;;;;5022246;28;20446;-68
2021/05/24 12:01:44;;;;;;;3.33;2.80;;;22.70;66.90;;;;;;5023626;28;21073;-67
2021/05/24 12:04:12;;;;;;;3.00;2.80;;;22.70;64.30;;;;;;5024651;28;20438;-69
2021/05/24 12:06:48;;;;;;;5.77;4.13;;;22.80;65.50;;;;;;5024379;28;20494;-67
2021/05/24 12:09:31;;;;;;;3.00;2.80;;;22.70;64.40;;;;;;5021508;28;20439;-67
2021/05/24 12:11:59;;;;;;;3.70;2.80;;;22.70;62.20;;;;;;5022980;28;20421;-68
2021/05/24 12:14:25;;;;;;;2.87;2.67;;;22.80;63.80;;;;;;5020381;28;20498;-68
2021/05/24 12:16:52;;;;;;;2.67;2.43;;;22.90;62.50;;;;;;5025652;28;20432;-69
2021/05/24 12:19:26;;;;;;;2.73;2.53;;;22.90;61.50;;;;;;5022679;28;20554;-69
2021/05/24 12:21:56;;;;;;;3.00;2.63;;;22.80;59.80;;;;;;5023134;28;20442;-68
2021/05/24 12:24:22;;;;;;;4.27;2.80;;;22.80;59.30;;;;;;5018506;28;20439;-68
2021/05/24 12:26:50;;;;;;;2.80;2.60;;;22.90;60.50;;;;;;5024207;28;20504;-67
2021/05/24 12:29:30;;;;;;;2.90;2.70;;;23.00;59.70;;;;;;5023316;28;20242;-67
2021/05/24 12:32:01;;;;;;;2.80;2.60;;;23.10;59.60;;;;;;5017978;28;20469;-67
2021/05/24 12:34:37;;;;;;;2.47;2.37;;;23.10;59.30;;;;;;5021353;28;20844;-68
2021/05/24 12:37:04;;;;;;;2.80;2.60;;;23.20;58.30;;;;;;5018707;28;21255;-67
2021/05/24 12:39:33;;;;;;;3.93;2.53;;;23.20;57.80;;;;;;5025111;28;20795;-69
2021/05/24 12:42:00;;;;;;;2.87;2.67;;;23.10;56.30;;;;;;5023196;28;20427;-68
2021/05/24 12:44:27;;;;;;;2.50;2.40;;;23.00;55.40;;;;;;5023763;28;20443;-67
2021/05/24 12:46:56;;;;;;;3.40;2.87;;;22.90;55.60;;;;;;5025293;28;20845;-68
2021/05/24 12:49:38;;;;;;;2.63;2.43;;;22.90;55.50;;;;;;5021076;28;20988;-68
2021/05/24 12:52:05;;;;;;;3.30;2.80;;;22.80;53.50;;;;;;5022739;28;20991;-67